createdAt,value
2022-10-24T00:02:26.555Z,100378.50
2022-10-24T00:04:55.716Z,100340.03
2022-10-24T00:07:24.851Z,100337.03
2022-10-24T00:09:55.407Z,100361.66
2022-10-24T00:12:26.397Z,100379.84
2022-10-24T00:14:55.543Z,100385.16
2022-10-24T00:17:24.553Z,100400.44
2022-10-24T00:19:59.034Z,100418.94
2022-10-24T00:22:28.779Z,100416.44
2022-10-24T00:24:59.429Z,100413.06
2022-10-24T00:27:28.611Z,100426.19
2022-10-24T00:29:57.805Z,100427.78
2022-10-24T00:32:26.776Z,100433.88
2022-10-24T00:34:55.765Z,100426.25
2022-10-24T00:37:24.960Z,100423.38
2022-10-24T00:39:54.375Z,100431.34
2022-10-24T00:42:25.220Z,100429.06
2022-10-24T00:44:55.690Z,100437.75
2022-10-24T00:47:28.432Z,100426.41
2022-10-24T00:50:05.061Z,100432.19
2022-10-24T00:52:39.406Z,100422.06
2022-10-24T00:55:10.449Z,100427.59
2022-10-24T00:57:47.114Z,100420.34
2022-10-24T01:00:24.042Z,100423.47
2022-10-24T01:02:53.549Z,100422.78
2022-10-24T01:05:26.773Z,100427.84
2022-10-24T01:08:11.750Z,100434.19
2022-10-24T01:10:54.271Z,100438.81
2022-10-24T01:13:41.133Z,100460.28
2022-10-24T01:16:17.768Z,100464.88
2022-10-24T01:18:58.491Z,100460.56
2022-10-24T01:21:35.018Z,100459.19
2022-10-24T01:24:31.070Z,100457.41
2022-10-24T01:27:46.474Z,100464.97
2022-10-24T01:30:19.237Z,100452.53
2022-10-24T01:32:59.868Z,100457.84
2022-10-24T01:35:40.648Z,100461.13
2022-10-24T01:38:20.694Z,100468.84
2022-10-24T01:40:56.098Z,100468.25
2022-10-24T01:43:30.853Z,100459.03
2022-10-24T01:46:08.461Z,100468.25
2022-10-24T01:48:47.028Z,100471.66
2022-10-24T01:51:22.546Z,100466.84
2022-10-24T01:53:53.180Z,100465.28
2022-10-24T01:56:22.180Z,100458.63
2022-10-24T01:58:51.766Z,100465.72
2022-10-24T02:01:26.605Z,100456.13
2022-10-24T02:04:00.062Z,100460.66
2022-10-24T02:06:36.204Z,100449.78
2022-10-24T02:09:11.404Z,100438.13
2022-10-24T02:11:42.397Z,100446.22
2022-10-24T02:14:19.452Z,100440.28
2022-10-24T02:16:50.116Z,100456.22
2022-10-24T02:19:20.179Z,100448.53
2022-10-24T02:22:01.206Z,100455.75
2022-10-24T02:24:40.007Z,100446.09
2022-10-24T02:27:14.821Z,100450.22
2022-10-24T02:29:50.284Z,100440.50
2022-10-24T02:32:29.976Z,100439.34
2022-10-24T02:35:00.145Z,100439.34
2022-10-24T02:37:32.797Z,100433.16
2022-10-24T02:40:04.906Z,100433.03
2022-10-24T02:42:36.048Z,100430.75
2022-10-24T02:45:07.909Z,100438.56
2022-10-24T02:47:41.859Z,100430.09
2022-10-24T02:50:12.336Z,100428.94
2022-10-24T02:52:44.400Z,100423.31
2022-10-24T02:55:13.996Z,100421.78
2022-10-24T02:57:43.102Z,100433.09
2022-10-24T03:00:14.080Z,100422.94
2022-10-24T03:02:44.790Z,100417.84
2022-10-24T03:05:14.081Z,100428.31
2022-10-24T03:07:43.017Z,100424.38
2022-10-24T03:10:12.348Z,100427.22
2022-10-24T03:12:41.688Z,100428.41
2022-10-24T03:15:11.991Z,100413.34
2022-10-24T03:17:41.233Z,100411.41
2022-10-24T03:20:12.342Z,100410.66
2022-10-24T03:22:41.366Z,100410.00
2022-10-24T03:25:11.984Z,100409.53
2022-10-24T03:27:41.247Z,100412.97
2022-10-24T03:30:11.667Z,100404.50
2022-10-24T03:32:40.714Z,100417.13
2022-10-24T03:35:14.123Z,100406.47
2022-10-24T03:37:43.493Z,100400.66
2022-10-24T03:40:13.659Z,100400.56
2022-10-24T03:42:43.273Z,100402.19
2022-10-24T03:45:12.972Z,100396.56
2022-10-24T03:47:41.904Z,100395.69
2022-10-24T03:50:12.341Z,100395.69
2022-10-24T03:52:41.282Z,100392.59
2022-10-24T03:55:12.506Z,100400.88
2022-10-24T03:57:41.798Z,100402.31
2022-10-24T04:00:12.892Z,100392.50
2022-10-24T04:02:43.867Z,100393.75
2022-10-24T04:05:15.820Z,100386.16
2022-10-24T04:07:45.313Z,100389.00
2022-10-24T04:10:15.008Z,100402.47
2022-10-24T04:12:44.056Z,100405.97
2022-10-24T04:15:13.506Z,100399.03
2022-10-24T04:17:42.936Z,100393.00
2022-10-24T04:20:14.497Z,100387.72
2022-10-24T04:22:43.579Z,100398.19
2022-10-24T04:25:12.856Z,100387.72
2022-10-24T04:27:41.992Z,100384.19
2022-10-24T04:30:16.719Z,100393.00
2022-10-24T04:32:46.566Z,100389.44
2022-10-24T04:35:17.895Z,100379.41
2022-10-24T04:37:46.976Z,100390.00
2022-10-24T04:40:16.034Z,100398.53
2022-10-24T04:42:45.166Z,100393.31
2022-10-24T04:45:14.228Z,100390.63
2022-10-24T04:47:43.807Z,100386.22
2022-10-24T04:50:13.228Z,100385.91
2022-10-24T04:52:43.860Z,100383.34
2022-10-24T04:55:12.875Z,100376.16
2022-10-24T04:57:42.207Z,100386.03
2022-10-24T05:00:12.789Z,100386.81
2022-10-24T05:02:42.150Z,100384.38
2022-10-24T05:05:11.327Z,100382.16
2022-10-24T05:07:40.625Z,100390.97
2022-10-24T05:10:12.133Z,100396.50
2022-10-24T05:12:42.136Z,100397.66
2022-10-24T05:15:12.581Z,100401.75
2022-10-24T05:17:42.212Z,100402.91
2022-10-24T05:20:12.470Z,100415.34
2022-10-24T05:22:41.764Z,100412.31
2022-10-24T05:25:12.505Z,100412.06
2022-10-24T05:27:41.727Z,100408.38
2022-10-24T05:30:12.045Z,100393.59
2022-10-24T05:32:42.183Z,100387.78
2022-10-24T05:35:12.309Z,100389.09
2022-10-24T05:37:41.207Z,100385.69
2022-10-24T05:40:17.097Z,100394.19
2022-10-24T05:42:52.025Z,100388.00
2022-10-24T05:45:21.883Z,100389.69
2022-10-24T05:47:50.818Z,100395.34
2022-10-24T05:50:20.426Z,100382.44
2022-10-24T05:52:49.386Z,100382.88
2022-10-24T05:55:20.176Z,100373.28
2022-10-24T05:57:49.354Z,100393.97
2022-10-24T06:00:19.751Z,100380.22
2022-10-24T06:02:49.405Z,100378.41
2022-10-24T06:05:19.051Z,100384.50
2022-10-24T06:07:48.936Z,100380.44
2022-10-24T06:10:20.055Z,100396.16
2022-10-24T06:12:49.216Z,100418.69
2022-10-24T06:15:18.505Z,100412.69
2022-10-24T06:17:47.583Z,100414.53
2022-10-24T06:20:16.642Z,100413.22
2022-10-24T06:22:47.003Z,100413.22
2022-10-24T06:25:17.604Z,100419.88
2022-10-24T06:27:48.940Z,100421.66
2022-10-24T06:30:18.010Z,100408.88
2022-10-24T06:32:47.406Z,100404.75
2022-10-24T06:35:16.530Z,100406.47
2022-10-24T06:37:47.973Z,100400.38
2022-10-24T06:40:18.607Z,100390.00
2022-10-24T06:42:49.348Z,100395.22
2022-10-24T06:45:18.657Z,100395.88
2022-10-24T06:47:51.759Z,100413.63
2022-10-24T06:50:23.239Z,100410.47
2022-10-24T06:52:52.530Z,100404.06
2022-10-24T06:55:21.408Z,100390.31
2022-10-24T06:57:52.307Z,100400.50
2022-10-24T07:00:21.687Z,100396.63
2022-10-24T07:02:50.697Z,100382.16
2022-10-24T07:05:20.269Z,100378.84
2022-10-24T07:07:49.286Z,100379.00
2022-10-24T07:10:18.281Z,100378.59
2022-10-24T07:12:47.566Z,100375.16
2022-10-24T07:15:18.295Z,100382.78
2022-10-24T07:17:51.611Z,100380.50
2022-10-24T07:20:21.933Z,100379.22
2022-10-24T07:22:50.856Z,100386.38
2022-10-24T07:25:37.877Z,100391.72
2022-10-24T07:28:25.363Z,100375.75
2022-10-24T07:31:26.122Z,100375.06
2022-10-24T07:33:55.961Z,100371.84
2022-10-24T07:36:27.745Z,100365.16
2022-10-24T07:38:59.595Z,100363.63
2022-10-24T07:41:31.397Z,100355.69
2022-10-24T07:44:02.428Z,100342.81
2022-10-24T07:46:33.257Z,100338.34
2022-10-24T07:49:02.355Z,100332.03
2022-10-24T07:51:32.025Z,100333.31
2022-10-24T07:54:02.545Z,100331.44
2022-10-24T07:56:31.679Z,100326.88
2022-10-24T07:59:05.897Z,100346.03
2022-10-24T08:01:39.862Z,100325.41
2022-10-24T08:04:08.889Z,100335.22
2022-10-24T08:06:38.040Z,100329.88
2022-10-24T08:09:07.066Z,100332.34
2022-10-24T08:11:37.357Z,100333.56
2022-10-24T08:14:07.493Z,100320.75
2022-10-24T08:16:38.524Z,100322.84
2022-10-24T08:19:09.450Z,100326.25
2022-10-24T08:21:39.343Z,100323.94
2022-10-24T08:24:09.253Z,100325.00
2022-10-24T08:26:45.319Z,100318.22
2022-10-24T08:29:15.398Z,100318.25
2022-10-24T08:31:44.751Z,100321.78
2022-10-24T08:34:17.450Z,100314.88
2022-10-24T08:36:48.144Z,100315.03
2022-10-24T08:39:18.582Z,100312.88
2022-10-24T08:41:54.546Z,100320.63
2022-10-24T08:44:34.687Z,100309.81
2022-10-24T08:47:13.761Z,100309.88
2022-10-24T08:49:50.645Z,100310.69
2022-10-24T08:52:32.178Z,100307.13
2022-10-24T08:55:25.159Z,100310.41
2022-10-24T08:58:00.822Z,100298.53
2022-10-24T09:00:44.142Z,100315.97
2022-10-24T09:03:31.367Z,100302.84
2022-10-24T09:06:19.584Z,100295.22
2022-10-24T09:08:55.259Z,100311.78
2022-10-24T09:11:39.762Z,100300.13
2022-10-24T09:14:15.633Z,100296.53
2022-10-24T09:16:47.038Z,100280.94
2022-10-24T09:19:21.096Z,100282.47
2022-10-24T09:21:53.612Z,100280.41
2022-10-24T09:24:42.726Z,100281.19
2022-10-24T09:27:20.137Z,100282.78
2022-10-24T09:29:49.275Z,100286.06
2022-10-24T09:32:22.393Z,100285.41
2022-10-24T09:34:52.036Z,100279.25
2022-10-24T09:37:46.965Z,100273.78
2022-10-24T09:40:24.314Z,100273.50
2022-10-24T09:43:00.147Z,100277.41
2022-10-24T09:45:41.806Z,100272.72
2022-10-24T09:48:29.207Z,100276.88
2022-10-24T09:51:01.227Z,100269.88
2022-10-24T09:53:36.470Z,100276.28
2022-10-24T09:56:12.811Z,100271.00
2022-10-24T09:58:43.278Z,100265.66
2022-10-24T10:01:23.036Z,100265.19
2022-10-24T10:04:09.439Z,100265.06
2022-10-24T10:06:47.090Z,100254.19
2022-10-24T10:09:31.680Z,100245.78
2022-10-24T10:12:03.027Z,100254.72
2022-10-24T10:14:33.223Z,100242.91
2022-10-24T10:17:06.312Z,100241.38
2022-10-24T10:19:39.449Z,100251.25
2022-10-24T10:22:24.481Z,100237.03
2022-10-24T10:24:56.556Z,100238.25
2022-10-24T10:27:36.545Z,100232.69
2022-10-24T10:30:20.782Z,100237.59
2022-10-24T10:33:18.956Z,100228.31
2022-10-24T10:36:03.502Z,100232.19
2022-10-24T10:38:53.114Z,100236.16
2022-10-24T10:41:43.604Z,100220.97
2022-10-24T10:44:49.554Z,100217.63
2022-10-24T10:47:35.666Z,100219.94
2022-10-24T10:50:26.372Z,100213.16
2022-10-24T10:53:06.286Z,100208.59
2022-10-24T10:55:49.429Z,100212.06
2022-10-24T11:01:22.876Z,100215.84
2022-10-24T11:04:03.675Z,100200.03
2022-10-24T11:06:48.098Z,100189.44
2022-10-24T11:09:34.675Z,100184.66
2022-10-24T11:12:13.098Z,100180.91
2022-10-24T11:14:51.721Z,100160.72
2022-10-24T11:17:33.965Z,100172.91
2022-10-24T11:20:17.242Z,100192.97
2022-10-24T11:22:53.243Z,100172.50
2022-10-24T11:25:31.709Z,100173.72
2022-10-24T11:28:13.974Z,100171.22
2022-10-24T11:30:52.847Z,100171.88
2022-10-24T11:33:28.290Z,100173.56
2022-10-24T11:36:12.621Z,100169.16
2022-10-24T11:38:51.440Z,100174.63
2022-10-24T11:41:46.743Z,100157.75
2022-10-24T11:44:44.386Z,100159.88
2022-10-24T11:47:55.188Z,100168.97
2022-10-24T11:50:36.533Z,100162.84
2022-10-24T11:53:19.889Z,100151.69
2022-10-24T11:55:56.472Z,100168.97
2022-10-24T11:58:30.933Z,100155.69
2022-10-24T12:01:32.700Z,100152.31
2022-10-24T12:04:44.267Z,100145.16
2022-10-24T12:08:12.926Z,100148.59
2022-10-24T12:11:27.554Z,100170.72
2022-10-24T12:14:44.129Z,100187.28
2022-10-24T12:17:36.801Z,100173.63
2022-10-24T12:20:16.534Z,100172.00
2022-10-24T12:22:48.185Z,100170.81
2022-10-24T12:25:30.788Z,100205.50
2022-10-24T12:28:03.982Z,100182.13
2022-10-24T12:30:36.655Z,100181.34
2022-10-24T12:33:26.562Z,100175.88
2022-10-24T12:35:57.835Z,100183.75
2022-10-24T12:39:10.095Z,100177.84
2022-10-24T12:41:55.728Z,100170.06
2022-10-24T12:44:52.613Z,100161.25
2022-10-24T12:47:40.342Z,100168.69
2022-10-24T12:50:59.811Z,100174.63
2022-10-24T12:54:16.242Z,100172.22
2022-10-24T12:57:24.399Z,100176.00
2022-10-24T12:59:57.401Z,100168.53
2022-10-24T13:03:08.421Z,100166.09
2022-10-24T13:06:04.535Z,100158.19
2022-10-24T13:09:17.203Z,100158.47
2022-10-24T13:12:11.971Z,100162.31
2022-10-24T13:15:09.898Z,100180.94
2022-10-24T13:17:50.238Z,100182.69
2022-10-24T13:20:23.883Z,100185.28
2022-10-24T13:23:08.070Z,100184.38
2022-10-24T13:25:40.649Z,100177.69
2022-10-24T13:28:43.603Z,100186.13
2022-10-24T13:31:55.933Z,100183.16
2022-10-24T13:34:40.428Z,100178.00
2022-10-24T13:37:21.508Z,100179.47
2022-10-24T13:39:56.814Z,100179.66
2022-10-24T13:42:43.404Z,100190.03
2022-10-24T13:45:29.384Z,100183.47
2022-10-24T13:48:07.243Z,100194.44
2022-10-24T13:50:40.399Z,100194.44
2022-10-24T13:53:29.586Z,100183.44
2022-10-24T13:56:10.625Z,100190.16
2022-10-24T13:58:44.746Z,100204.47
2022-10-24T14:01:22.158Z,100191.63
2022-10-24T14:03:53.509Z,100192.84
2022-10-24T14:06:29.353Z,100199.38
2022-10-24T14:09:07.223Z,100207.72
2022-10-24T14:11:43.985Z,100213.69
2022-10-24T14:14:29.110Z,100214.06
2022-10-24T14:17:22.123Z,100216.53
2022-10-24T14:19:55.924Z,100214.56
2022-10-24T14:22:29.478Z,100210.88
2022-10-24T14:24:59.152Z,100205.69
2022-10-24T14:27:29.982Z,100210.72
2022-10-24T14:30:03.215Z,100203.22
2022-10-24T14:32:33.177Z,100216.91
2022-10-24T14:35:03.226Z,100210.38
2022-10-24T14:37:38.176Z,100214.59
2022-10-24T14:40:16.365Z,100217.00
2022-10-24T14:42:49.679Z,100216.78
2022-10-24T14:45:29.175Z,100223.91
2022-10-24T14:48:00.968Z,100233.44
2022-10-24T14:50:44.030Z,100244.03
2022-10-24T14:53:29.032Z,100233.91
2022-10-24T14:56:01.558Z,100251.94
2022-10-24T14:58:37.976Z,100247.97
2022-10-24T15:01:07.431Z,100252.56
2022-10-24T15:03:54.169Z,100257.97
2022-10-24T15:06:27.446Z,100264.16
2022-10-24T15:09:07.763Z,100262.16
2022-10-24T15:11:41.590Z,100251.13
2022-10-24T15:14:40.300Z,100262.16
2022-10-24T15:17:32.410Z,100260.63
2022-10-24T15:20:04.540Z,100258.94
2022-10-24T15:22:36.971Z,100265.03
2022-10-24T15:27:50.630Z,100260.63
2022-10-24T15:30:24.001Z,100258.22
2022-10-24T15:32:53.667Z,100257.38
2022-10-24T15:35:22.902Z,100255.41
2022-10-24T15:37:58.831Z,100255.72
2022-10-24T15:40:32.655Z,100258.75
2022-10-24T15:43:03.847Z,100263.09
2022-10-24T15:45:34.575Z,100267.50
2022-10-24T15:48:03.640Z,100273.19
2022-10-24T15:50:32.677Z,100282.19
2022-10-24T15:53:06.108Z,100275.47
2022-10-24T15:55:35.100Z,100271.75
2022-10-24T15:58:04.369Z,100285.19
2022-10-24T16:00:35.232Z,100286.59
2022-10-24T16:03:05.826Z,100279.34
2022-10-24T16:05:40.208Z,100298.66
2022-10-24T16:08:15.219Z,100287.66
2022-10-24T16:10:45.089Z,100291.22
2022-10-24T16:13:16.528Z,100284.75
2022-10-24T16:15:48.567Z,100296.97
2022-10-24T16:18:18.252Z,100294.97
2022-10-24T16:20:47.538Z,100295.66
2022-10-24T16:23:17.962Z,100302.09
2022-10-24T16:25:47.512Z,100311.88
2022-10-24T16:28:22.782Z,100306.47
2022-10-24T16:30:55.158Z,100314.75
2022-10-24T16:33:24.523Z,100319.31
2022-10-24T16:35:53.771Z,100322.03
2022-10-24T16:38:23.078Z,100320.31
2022-10-24T16:40:54.293Z,100328.09
2022-10-24T16:43:23.338Z,100327.41
2022-10-24T16:46:01.080Z,100324.69
2022-10-24T16:48:33.384Z,100333.13
2022-10-24T16:51:02.537Z,100327.22
2022-10-24T16:53:31.707Z,100335.34
2022-10-24T16:56:00.668Z,100341.78
2022-10-24T16:58:30.530Z,100338.56
2022-10-24T17:01:08.214Z,100336.56
2022-10-24T17:03:38.302Z,100336.38
2022-10-24T17:06:08.781Z,100339.25
2022-10-24T17:08:37.984Z,100342.63
2022-10-24T17:11:25.848Z,100347.38
2022-10-24T17:13:56.680Z,100351.78
2022-10-24T17:16:28.723Z,100357.81
2022-10-24T17:19:15.121Z,100349.50
2022-10-24T17:21:47.049Z,100350.53
2022-10-24T17:24:20.043Z,100359.78
2022-10-24T17:26:50.740Z,100360.75
2022-10-24T17:29:28.588Z,100363.16
2022-10-24T17:32:00.379Z,100362.66
2022-10-24T17:34:34.306Z,100363.75
2022-10-24T17:37:08.572Z,100363.72
2022-10-24T17:39:49.063Z,100371.16
2022-10-24T17:42:18.588Z,100364.50
2022-10-24T17:44:48.872Z,100370.00
2022-10-24T17:47:19.681Z,100374.06
2022-10-24T17:49:48.618Z,100366.78
2022-10-24T17:52:24.985Z,100367.59
2022-10-24T17:54:54.011Z,100373.06
2022-10-24T17:57:23.997Z,100377.53
2022-10-24T17:59:54.327Z,100380.16
2022-10-24T18:02:25.258Z,100376.47
2022-10-24T18:04:54.499Z,100389.31
2022-10-24T18:07:25.887Z,100388.44
2022-10-24T18:10:00.528Z,100386.03
2022-10-24T18:12:29.844Z,100379.00
2022-10-24T18:14:59.198Z,100379.94
2022-10-24T18:17:29.920Z,100383.41
2022-10-24T18:19:59.241Z,100382.94
2022-10-24T18:22:31.264Z,100381.69
2022-10-24T18:25:00.508Z,100386.44
2022-10-24T18:27:29.688Z,100388.84
2022-10-24T18:29:59.128Z,100390.56
2022-10-24T18:32:29.915Z,100401.38
2022-10-24T18:34:58.941Z,100398.16
2022-10-24T18:37:29.072Z,100407.97
2022-10-24T18:39:59.089Z,100410.88
2022-10-24T18:42:33.668Z,100412.00
2022-10-24T18:45:04.417Z,100412.06
2022-10-24T18:47:37.205Z,100414.63
2022-10-24T18:50:08.310Z,100413.13
2022-10-24T18:52:50.769Z,100415.47
2022-10-24T18:55:25.353Z,100408.72
2022-10-24T18:57:57.464Z,100399.31
2022-10-24T19:00:31.880Z,100416.78
2022-10-24T19:03:28.700Z,100397.00
2022-10-24T19:06:12.375Z,100393.00
2022-10-24T19:08:46.749Z,100404.16
2022-10-24T19:11:17.765Z,100415.38
2022-10-24T19:13:51.696Z,100401.53
2022-10-24T19:16:28.741Z,100406.91
2022-10-24T19:19:04.609Z,100407.06
2022-10-24T19:21:36.359Z,100407.38
2022-10-24T19:24:11.417Z,100406.97
2022-10-24T19:26:41.094Z,100412.25
2022-10-24T19:29:11.487Z,100416.34
2022-10-24T19:31:51.045Z,100419.03
2022-10-24T19:34:21.820Z,100417.66
2022-10-24T19:36:52.534Z,100430.16
2022-10-24T19:39:23.946Z,100433.03
2022-10-24T19:41:53.571Z,100426.09
2022-10-24T19:44:24.906Z,100432.13
2022-10-24T19:46:56.786Z,100423.66
2022-10-24T19:49:28.224Z,100423.94
2022-10-24T19:52:00.106Z,100435.69
2022-10-24T19:54:29.073Z,100436.50
2022-10-24T19:56:58.068Z,100435.72
2022-10-24T19:59:33.911Z,100435.22
2022-10-24T20:02:03.325Z,100435.00
2022-10-24T20:04:39.202Z,100444.19
2022-10-24T20:07:09.841Z,100450.22
2022-10-24T20:09:38.875Z,100447.47
2022-10-24T20:12:08.571Z,100445.31
2022-10-24T20:14:37.627Z,100450.72
2022-10-24T20:17:06.638Z,100447.69
2022-10-24T20:19:37.085Z,100455.16
2022-10-24T20:22:06.472Z,100457.41
2022-10-24T20:24:35.615Z,100461.50
2022-10-24T20:29:36.393Z,100455.13
2022-10-24T20:32:05.761Z,100460.44
2022-10-24T20:34:36.460Z,100460.44
2022-10-24T20:37:07.600Z,100461.03
2022-10-24T20:39:37.926Z,100467.44
2022-10-24T20:42:07.457Z,100468.19
2022-10-24T20:44:36.519Z,100475.38
2022-10-24T20:47:05.555Z,100471.59
2022-10-24T20:49:35.882Z,100485.19
2022-10-24T20:52:05.057Z,100485.00
2022-10-24T20:54:34.297Z,100480.41
2022-10-24T20:57:03.494Z,100497.09
2022-10-24T20:59:32.420Z,100501.34
2022-10-24T21:02:01.578Z,100503.50
2022-10-24T21:04:30.587Z,100500.16
2022-10-24T21:07:01.146Z,100511.69
2022-10-24T21:09:30.177Z,100518.78
2022-10-24T21:11:59.386Z,100521.59
2022-10-24T21:14:28.453Z,100518.72
2022-10-24T21:16:57.504Z,100530.34
2022-10-24T21:19:26.950Z,100530.25
2022-10-24T21:21:55.814Z,100543.88
2022-10-24T21:24:26.259Z,100535.56
2022-10-24T21:26:55.421Z,100537.41
2022-10-24T21:29:39.615Z,100533.81
2022-10-24T21:32:08.244Z,100534.72
2022-10-24T21:34:37.235Z,100537.13
2022-10-24T21:37:07.156Z,100534.03
2022-10-24T21:39:37.679Z,100538.88
2022-10-24T21:42:06.767Z,100540.09
2022-10-24T21:44:36.891Z,100543.97
2022-10-24T21:47:05.959Z,100544.16
2022-10-24T21:49:35.011Z,100553.31
2022-10-24T21:52:04.014Z,100560.75
2022-10-24T21:54:33.372Z,100564.44
2022-10-24T21:57:03.945Z,100564.03
2022-10-24T21:59:32.998Z,100564.56
2022-10-24T22:02:01.976Z,100570.56
2022-10-24T22:04:30.970Z,100567.28
2022-10-24T22:06:59.957Z,100571.69
2022-10-24T22:09:29.334Z,100566.94
2022-10-24T22:11:59.103Z,100581.34
2022-10-24T22:14:29.562Z,100582.06
2022-10-24T22:16:58.494Z,100579.94
2022-10-24T22:19:27.821Z,100575.28
2022-10-24T22:21:56.898Z,100584.66
2022-10-24T22:24:27.017Z,100587.53
2022-10-24T22:26:56.147Z,100589.25
2022-10-24T22:29:26.585Z,100593.94
2022-10-24T22:31:58.336Z,100601.75
2022-10-24T22:34:28.693Z,100599.06
2022-10-24T22:37:13.146Z,100604.84
2022-10-24T22:39:43.047Z,100607.00
2022-10-24T22:42:16.145Z,100604.84
2022-10-24T22:44:49.357Z,100605.84
2022-10-24T22:47:55.289Z,100608.13
2022-10-24T22:50:53.860Z,100612.47
2022-10-24T22:53:26.245Z,100617.53
2022-10-24T22:56:13.885Z,100614.72
2022-10-24T22:58:45.960Z,100619.63
2022-10-24T23:01:30.446Z,100616.09
2022-10-24T23:04:22.229Z,100609.66
2022-10-24T23:06:57.680Z,100607.63
2022-10-24T23:09:26.762Z,100611.41
2022-10-24T23:11:57.049Z,100609.72
2022-10-24T23:14:27.066Z,100615.69
2022-10-24T23:17:00.874Z,100622.38
2022-10-24T23:19:33.657Z,100625.63
2022-10-24T23:22:19.225Z,100626.78
2022-10-24T23:24:49.140Z,100631.13
2022-10-24T23:27:45.983Z,100631.56
2022-10-24T23:30:20.499Z,100641.06
2022-10-24T23:32:52.617Z,100635.94
2022-10-24T23:35:25.310Z,100639.78
2022-10-24T23:37:55.831Z,100639.47
2022-10-24T23:40:35.155Z,100645.97
2022-10-24T23:43:05.687Z,100645.97
2022-10-24T23:45:44.503Z,100642.22
2022-10-24T23:48:31.857Z,100650.94
2022-10-24T23:51:13.319Z,100642.31
2022-10-24T23:53:50.827Z,100646.41
2022-10-24T23:56:22.847Z,100644.16
2022-10-24T23:58:53.343Z,100648.94
